sensor_id;sensor_type;location;lat;lon;timestamp;temperature;humidity
65058;HTU21D;51644;51.068;5.860;2023-10-09T00:00:55;18.00;75.89
65058;HTU21D;51644;51.068;5.860;2023-10-09T00:02:10;17.97;75.94
65058;HTU21D;51644;51.068;5.860;2023-10-09T00:03:13;17.95;76.06
65058;HTU21D;51644;51.068;5.860;2023-10-09T00:04:15;17.90;76.25
65058;HTU21D;51644;51.068;5.860;2023-10-09T00:05:14;17.88;76.29
65058;HTU21D;51644;51.068;5.860;2023-10-09T00:06:22;17.87;76.44
65058;HTU21D;51644;51.068;5.860;2023-10-09T00:07:47;17.83;76.47
65058;HTU21D;51644;51.068;5.860;2023-10-09T00:08:49;17.84;76.47
65058;HTU21D;51644;51.068;5.860;2023-10-09T00:09:53;17.81;76.53
65058;HTU21D;51644;51.068;5.860;2023-10-09T00:10:53;17.78;76.64
65058;HTU21D;51644;51.068;5.860;2023-10-09T00:11:58;17.78;76.62
65058;HTU21D;51644;51.068;5.860;2023-10-09T00:12:58;17.77;76.76
65058;HTU21D;51644;51.068;5.860;2023-10-09T00:13:57;17.77;76.74
65058;HTU21D;51644;51.068;5.860;2023-10-09T00:14:56;17.70;76.89
65058;HTU21D;51644;51.068;5.860;2023-10-09T00:16:04;17.70;76.92
65058;HTU21D;51644;51.068;5.860;2023-10-09T00:17:14;17.68;77.01
65058;HTU21D;51644;51.068;5.860;2023-10-09T00:18:13;17.66;77.05
65058;HTU21D;51644;51.068;5.860;2023-10-09T00:19:11;17.66;77.03
65058;HTU21D;51644;51.068;5.860;2023-10-09T00:20:18;17.67;76.98
65058;HTU21D;51644;51.068;5.860;2023-10-09T00:21:19;17.64;77.02
65058;HTU21D;51644;51.068;5.860;2023-10-09T00:22:23;17.64;77.07
65058;HTU21D;51644;51.068;5.860;2023-10-09T00:23:24;17.62;77.11
65058;HTU21D;51644;51.068;5.860;2023-10-09T00:24:24;17.60;77.26
65058;HTU21D;51644;51.068;5.860;2023-10-09T00:25:23;17.58;77.40
65058;HTU21D;51644;51.068;5.860;2023-10-09T00:26:28;17.54;77.50
65058;HTU21D;51644;51.068;5.860;2023-10-09T00:27:32;17.55;77.49
65058;HTU21D;51644;51.068;5.860;2023-10-09T00:28:38;17.56;77.48
65058;HTU21D;51644;51.068;5.860;2023-10-09T00:29:41;17.55;77.49
65058;HTU21D;51644;51.068;5.860;2023-10-09T00:30:47;17.56;77.46
65058;HTU21D;51644;51.068;5.860;2023-10-09T00:31:55;17.56;77.44
65058;HTU21D;51644;51.068;5.860;2023-10-09T00:33:07;17.58;77.37
65058;HTU21D;51644;51.068;5.860;2023-10-09T00:34:06;17.56;77.33
65058;HTU21D;51644;51.068;5.860;2023-10-09T00:35:06;17.56;77.34
65058;HTU21D;51644;51.068;5.860;2023-10-09T00:36:23;17.58;77.34
65058;HTU21D;51644;51.068;5.860;2023-10-09T00:37:27;17.55;77.43
65058;HTU21D;51644;51.068;5.860;2023-10-09T00:38:32;17.52;77.63
65058;HTU21D;51644;51.068;5.860;2023-10-09T00:39:33;17.53;77.55
65058;HTU21D;51644;51.068;5.860;2023-10-09T00:40:34;17.52;77.61
65058;HTU21D;51644;51.068;5.860;2023-10-09T00:41:34;17.52;77.66
65058;HTU21D;51644;51.068;5.860;2023-10-09T00:42:40;17.51;77.76
65058;HTU21D;51644;51.068;5.860;2023-10-09T00:43:39;17.52;77.77
65058;HTU21D;51644;51.068;5.860;2023-10-09T00:44:45;17.52;77.84
65058;HTU21D;51644;51.068;5.860;2023-10-09T00:45:46;17.54;77.76
65058;HTU21D;51644;51.068;5.860;2023-10-09T00:46:49;17.56;77.76
65058;HTU21D;51644;51.068;5.860;2023-10-09T00:47:48;17.61;77.69
65058;HTU21D;51644;51.068;5.860;2023-10-09T00:48:56;17.63;77.61
65058;HTU21D;51644;51.068;5.860;2023-10-09T00:49:58;17.65;77.51
65058;HTU21D;51644;51.068;5.860;2023-10-09T00:51:21;17.67;77.63
65058;HTU21D;51644;51.068;5.860;2023-10-09T00:52:21;17.66;77.66
65058;HTU21D;51644;51.068;5.860;2023-10-09T00:53:35;17.67;77.57
65058;HTU21D;51644;51.068;5.860;2023-10-09T00:54:40;17.72;77.42
65058;HTU21D;51644;51.068;5.860;2023-10-09T00:55:40;17.74;77.38
65058;HTU21D;51644;51.068;5.860;2023-10-09T00:56:43;17.76;77.36
65058;HTU21D;51644;51.068;5.860;2023-10-09T00:57:48;17.76;77.48
65058;HTU21D;51644;51.068;5.860;2023-10-09T00:58:53;17.75;77.43
65058;HTU21D;51644;51.068;5.860;2023-10-09T00:59:54;17.78;77.38
65058;HTU21D;51644;51.068;5.860;2023-10-09T01:01:11;17.80;77.32
65058;HTU21D;51644;51.068;5.860;2023-10-09T01:02:14;17.79;77.38
65058;HTU21D;51644;51.068;5.860;2023-10-09T01:03:19;17.84;77.24
65058;HTU21D;51644;51.068;5.860;2023-10-09T01:04:25;17.87;77.21
65058;HTU21D;51644;51.068;5.860;2023-10-09T01:05:31;17.89;77.15
65058;HTU21D;51644;51.068;5.860;2023-10-09T01:06:49;17.87;77.29
65058;HTU21D;51644;51.068;5.860;2023-10-09T01:08:05;17.89;77.09
65058;HTU21D;51644;51.068;5.860;2023-10-09T01:09:23;17.92;77.05
65058;HTU21D;51644;51.068;5.860;2023-10-09T01:10:22;17.89;77.35
65058;HTU21D;51644;51.068;5.860;2023-10-09T01:11:21;17.92;77.08
65058;HTU21D;51644;51.068;5.860;2023-10-09T01:12:21;17.91;77.13
65058;HTU21D;51644;51.068;5.860;2023-10-09T01:13:24;17.93;77.06
65058;HTU21D;51644;51.068;5.860;2023-10-09T01:14:37;17.92;77.19
65058;HTU21D;51644;51.068;5.860;2023-10-09T01:15:41;17.94;77.04
65058;HTU21D;51644;51.068;5.860;2023-10-09T01:16:45;17.93;77.20
65058;HTU21D;51644;51.068;5.860;2023-10-09T01:17:46;17.96;77.02
65058;HTU21D;51644;51.068;5.860;2023-10-09T01:18:47;17.91;77.23
65058;HTU21D;51644;51.068;5.860;2023-10-09T01:19:49;17.92;77.27
65058;HTU21D;51644;51.068;5.860;2023-10-09T01:20:53;17.90;77.40
65058;HTU21D;51644;51.068;5.860;2023-10-09T01:21:54;17.92;77.23
65058;HTU21D;51644;51.068;5.860;2023-10-09T01:22:52;17.89;77.53
65058;HTU21D;51644;51.068;5.860;2023-10-09T01:23:53;17.93;77.21
65058;HTU21D;51644;51.068;5.860;2023-10-09T01:25:00;17.94;77.21
65058;HTU21D;51644;51.068;5.860;2023-10-09T01:26:04;17.93;77.25
65058;HTU21D;51644;51.068;5.860;2023-10-09T01:27:03;17.94;77.25
65058;HTU21D;51644;51.068;5.860;2023-10-09T01:28:04;17.97;77.15
65058;HTU21D;51644;51.068;5.860;2023-10-09T01:29:03;17.96;77.20
65058;HTU21D;51644;51.068;5.860;2023-10-09T01:30:03;17.95;77.25
65058;HTU21D;51644;51.068;5.860;2023-10-09T01:31:08;17.95;77.28
65058;HTU21D;51644;51.068;5.860;2023-10-09T01:32:27;17.93;77.47
65058;HTU21D;51644;51.068;5.860;2023-10-09T01:33:26;17.95;77.24
65058;HTU21D;51644;51.068;5.860;2023-10-09T01:34:35;17.96;77.31
65058;HTU21D;51644;51.068;5.860;2023-10-09T01:35:34;17.97;77.29
65058;HTU21D;51644;51.068;5.860;2023-10-09T01:36:36;17.97;77.38
65058;HTU21D;51644;51.068;5.860;2023-10-09T01:37:37;17.96;77.40
65058;HTU21D;51644;51.068;5.860;2023-10-09T01:38:38;17.99;77.56
65058;HTU21D;51644;51.068;5.860;2023-10-09T01:39:41;18.02;77.25
65058;HTU21D;51644;51.068;5.860;2023-10-09T01:40:41;18.02;77.25
65058;HTU21D;51644;51.068;5.860;2023-10-09T01:41:42;17.97;77.60
65058;HTU21D;51644;51.068;5.860;2023-10-09T01:42:45;17.98;77.46
65058;HTU21D;51644;51.068;5.860;2023-10-09T01:43:44;18.04;77.14
65058;HTU21D;51644;51.068;5.860;2023-10-09T01:44:46;18.04;77.17
65058;HTU21D;51644;51.068;5.860;2023-10-09T01:45:46;18.04;77.19
65058;HTU21D;51644;51.068;5.860;2023-10-09T01:46:50;18.04;77.22
65058;HTU21D;51644;51.068;5.860;2023-10-09T01:47:51;18.00;77.43
65058;HTU21D;51644;51.068;5.860;2023-10-09T01:48:50;18.00;77.36
65058;HTU21D;51644;51.068;5.860;2023-10-09T01:49:49;18.00;77.34
65058;HTU21D;51644;51.068;5.860;2023-10-09T01:50:47;18.02;77.32
65058;HTU21D;51644;51.068;5.860;2023-10-09T01:51:47;18.02;77.31
65058;HTU21D;51644;51.068;5.860;2023-10-09T01:52:50;18.04;77.24
65058;HTU21D;51644;51.068;5.860;2023-10-09T01:53:49;18.05;77.21
65058;HTU21D;51644;51.068;5.860;2023-10-09T01:54:55;18.07;77.21
65058;HTU21D;51644;51.068;5.860;2023-10-09T01:56:10;18.08;77.18
65058;HTU21D;51644;51.068;5.860;2023-10-09T01:57:14;18.08;77.18
65058;HTU21D;51644;51.068;5.860;2023-10-09T01:58:14;18.10;77.12
65058;HTU21D;51644;51.068;5.860;2023-10-09T01:59:23;18.10;77.11
65058;HTU21D;51644;51.068;5.860;2023-10-09T02:00:27;18.12;77.08
65058;HTU21D;51644;51.068;5.860;2023-10-09T02:01:30;18.12;77.07
65058;HTU21D;51644;51.068;5.860;2023-10-09T02:02:31;18.12;77.07
65058;HTU21D;51644;51.068;5.860;2023-10-09T02:03:29;18.12;77.08
65058;HTU21D;51644;51.068;5.860;2023-10-09T02:04:34;18.13;77.04
65058;HTU21D;51644;51.068;5.860;2023-10-09T02:05:35;18.12;77.06
65058;HTU21D;51644;51.068;5.860;2023-10-09T02:06:35;18.13;77.03
65058;HTU21D;51644;51.068;5.860;2023-10-09T02:07:52;18.13;77.06
65058;HTU21D;51644;51.068;5.860;2023-10-09T02:08:52;18.11;77.09
65058;HTU21D;51644;51.068;5.860;2023-10-09T02:09:53;18.12;77.08
65058;HTU21D;51644;51.068;5.860;2023-10-09T02:10:53;18.12;77.11
65058;HTU21D;51644;51.068;5.860;2023-10-09T02:11:55;18.13;77.08
65058;HTU21D;51644;51.068;5.860;2023-10-09T02:12:57;18.12;77.14
65058;HTU21D;51644;51.068;5.860;2023-10-09T02:13:58;18.11;77.13
65058;HTU21D;51644;51.068;5.860;2023-10-09T02:14:59;18.12;77.15
65058;HTU21D;51644;51.068;5.860;2023-10-09T02:16:05;18.10;77.14
65058;HTU21D;51644;51.068;5.860;2023-10-09T02:17:13;18.11;77.15
65058;HTU21D;51644;51.068;5.860;2023-10-09T02:18:27;18.10;77.15
65058;HTU21D;51644;51.068;5.860;2023-10-09T02:19:37;18.08;77.15
65058;HTU21D;51644;51.068;5.860;2023-10-09T02:20:39;18.07;77.22
65058;HTU21D;51644;51.068;5.860;2023-10-09T02:21:39;18.07;77.24
65058;HTU21D;51644;51.068;5.860;2023-10-09T02:22:41;18.06;77.24
65058;HTU21D;51644;51.068;5.860;2023-10-09T02:23:40;18.05;77.36
65058;HTU21D;51644;51.068;5.860;2023-10-09T02:24:48;18.06;77.33
65058;HTU21D;51644;51.068;5.860;2023-10-09T02:25:47;18.06;77.28
65058;HTU21D;51644;51.068;5.860;2023-10-09T02:26:51;18.05;77.34
65058;HTU21D;51644;51.068;5.860;2023-10-09T02:27:50;18.04;77.37
65058;HTU21D;51644;51.068;5.860;2023-10-09T02:28:55;18.05;77.37
65058;HTU21D;51644;51.068;5.860;2023-10-09T02:30:16;18.07;77.31
65058;HTU21D;51644;51.068;5.860;2023-10-09T02:31:29;18.07;77.31
65058;HTU21D;51644;51.068;5.860;2023-10-09T02:32:43;18.03;77.51
65058;HTU21D;51644;51.068;5.860;2023-10-09T02:33:41;18.02;77.40
65058;HTU21D;51644;51.068;5.860;2023-10-09T02:34:50;18.04;77.35
65058;HTU21D;51644;51.068;5.860;2023-10-09T02:35:57;18.05;77.33
65058;HTU21D;51644;51.068;5.860;2023-10-09T02:37:08;18.05;77.27
65058;HTU21D;51644;51.068;5.860;2023-10-09T02:38:27;18.04;77.28
65058;HTU21D;51644;51.068;5.860;2023-10-09T02:39:30;18.06;77.28
65058;HTU21D;51644;51.068;5.860;2023-10-09T02:40:43;18.02;77.37
65058;HTU21D;51644;51.068;5.860;2023-10-09T02:42:00;17.99;77.47
65058;HTU21D;51644;51.068;5.860;2023-10-09T02:43:08;17.99;77.60
65058;HTU21D;51644;51.068;5.860;2023-10-09T02:44:16;18.00;77.43
65058;HTU21D;51644;51.068;5.860;2023-10-09T02:45:18;17.95;77.65
65058;HTU21D;51644;51.068;5.860;2023-10-09T02:46:18;17.95;77.59
65058;HTU21D;51644;51.068;5.860;2023-10-09T02:47:21;17.98;77.47
65058;HTU21D;51644;51.068;5.860;2023-10-09T02:48:23;17.99;77.45
65058;HTU21D;51644;51.068;5.860;2023-10-09T02:49:29;18.00;77.41
65058;HTU21D;51644;51.068;5.860;2023-10-09T02:50:27;17.99;77.44
65058;HTU21D;51644;51.068;5.860;2023-10-09T02:51:32;17.98;77.37
65058;HTU21D;51644;51.068;5.860;2023-10-09T02:52:32;17.96;77.50
65058;HTU21D;51644;51.068;5.860;2023-10-09T02:53:44;17.99;77.39
65058;HTU21D;51644;51.068;5.860;2023-10-09T02:54:48;17.94;77.51
65058;HTU21D;51644;51.068;5.860;2023-10-09T02:55:47;17.98;77.40
65058;HTU21D;51644;51.068;5.860;2023-10-09T02:57:00;17.96;77.39
65058;HTU21D;51644;51.068;5.860;2023-10-09T02:58:06;17.93;77.60
65058;HTU21D;51644;51.068;5.860;2023-10-09T02:59:06;17.94;77.54
65058;HTU21D;51644;51.068;5.860;2023-10-09T03:00:05;17.95;77.41
65058;HTU21D;51644;51.068;5.860;2023-10-09T03:01:11;17.95;77.41
65058;HTU21D;51644;51.068;5.860;2023-10-09T03:02:11;17.96;77.41
65058;HTU21D;51644;51.068;5.860;2023-10-09T03:03:10;17.95;77.40
65058;HTU21D;51644;51.068;5.860;2023-10-09T03:04:09;17.95;77.38
65058;HTU21D;51644;51.068;5.860;2023-10-09T03:05:13;17.94;77.45
65058;HTU21D;51644;51.068;5.860;2023-10-09T03:06:16;17.93;77.46
65058;HTU21D;51644;51.068;5.860;2023-10-09T03:07:40;17.94;77.40
65058;HTU21D;51644;51.068;5.860;2023-10-09T03:08:39;17.92;77.53
65058;HTU21D;51644;51.068;5.860;2023-10-09T03:09:41;17.90;77.58
65058;HTU21D;51644;51.068;5.860;2023-10-09T03:10:40;17.91;77.51
65058;HTU21D;51644;51.068;5.860;2023-10-09T03:11:49;17.90;77.63
65058;HTU21D;51644;51.068;5.860;2023-10-09T03:12:52;17.90;77.50
65058;HTU21D;51644;51.068;5.860;2023-10-09T03:13:51;17.91;77.55
65058;HTU21D;51644;51.068;5.860;2023-10-09T03:14:51;17.92;77.50
65058;HTU21D;51644;51.068;5.860;2023-10-09T03:15:52;17.91;77.47
65058;HTU21D;51644;51.068;5.860;2023-10-09T03:16:52;17.92;77.48
65058;HTU21D;51644;51.068;5.860;2023-10-09T03:17:51;17.91;77.47
65058;HTU21D;51644;51.068;5.860;2023-10-09T03:18:52;17.91;77.37
65058;HTU21D;51644;51.068;5.860;2023-10-09T03:19:51;17.91;77.45
65058;HTU21D;51644;51.068;5.860;2023-10-09T03:20:49;17.88;77.53
65058;HTU21D;51644;51.068;5.860;2023-10-09T03:21:48;17.89;77.47
65058;HTU21D;51644;51.068;5.860;2023-10-09T03:22:47;17.87;77.53
65058;HTU21D;51644;51.068;5.860;2023-10-09T03:23:48;17.85;77.53
65058;HTU21D;51644;51.068;5.860;2023-10-09T03:24:50;17.88;77.46
65058;HTU21D;51644;51.068;5.860;2023-10-09T03:25:51;17.87;77.42
65058;HTU21D;51644;51.068;5.860;2023-10-09T03:26:53;17.88;77.38
65058;HTU21D;51644;51.068;5.860;2023-10-09T03:27:55;17.82;77.60
65058;HTU21D;51644;51.068;5.860;2023-10-09T03:29:00;17.81;77.62
65058;HTU21D;51644;51.068;5.860;2023-10-09T03:30:05;17.81;77.62
65058;HTU21D;51644;51.068;5.860;2023-10-09T03:31:08;17.84;77.53
65058;HTU21D;51644;51.068;5.860;2023-10-09T03:32:08;17.82;77.58
65058;HTU21D;51644;51.068;5.860;2023-10-09T03:33:09;17.81;77.60
65058;HTU21D;51644;51.068;5.860;2023-10-09T03:34:08;17.87;77.46
65058;HTU21D;51644;51.068;5.860;2023-10-09T03:35:09;17.82;77.59
65058;HTU21D;51644;51.068;5.860;2023-10-09T03:36:12;17.85;77.41
65058;HTU21D;51644;51.068;5.860;2023-10-09T03:37:13;17.83;77.42
65058;HTU21D;51644;51.068;5.860;2023-10-09T03:38:20;17.85;77.40
65058;HTU21D;51644;51.068;5.860;2023-10-09T03:39:19;17.81;77.56
65058;HTU21D;51644;51.068;5.860;2023-10-09T03:40:33;17.81;77.47
65058;HTU21D;51644;51.068;5.860;2023-10-09T03:41:32;17.82;77.50
65058;HTU21D;51644;51.068;5.860;2023-10-09T03:42:31;17.81;77.47
65058;HTU21D;51644;51.068;5.860;2023-10-09T03:43:38;17.81;77.48
65058;HTU21D;51644;51.068;5.860;2023-10-09T03:44:40;17.84;77.42
65058;HTU21D;51644;51.068;5.860;2023-10-09T03:45:42;17.85;77.34
65058;HTU21D;51644;51.068;5.860;2023-10-09T03:46:59;17.79;77.57
65058;HTU21D;51644;51.068;5.860;2023-10-09T03:47:57;17.80;77.50
65058;HTU21D;51644;51.068;5.860;2023-10-09T03:49:03;17.81;77.50
65058;HTU21D;51644;51.068;5.860;2023-10-09T03:50:09;17.82;77.48
65058;HTU21D;51644;51.068;5.860;2023-10-09T03:51:22;17.80;77.50
65058;HTU21D;51644;51.068;5.860;2023-10-09T03:52:21;17.83;77.44
65058;HTU21D;51644;51.068;5.860;2023-10-09T03:53:24;17.83;77.51
65058;HTU21D;51644;51.068;5.860;2023-10-09T03:54:22;17.84;77.40
65058;HTU21D;51644;51.068;5.860;2023-10-09T03:55:23;17.84;77.39
65058;HTU21D;51644;51.068;5.860;2023-10-09T03:56:26;17.84;77.32
65058;HTU21D;51644;51.068;5.860;2023-10-09T03:57:24;17.85;77.30
65058;HTU21D;51644;51.068;5.860;2023-10-09T03:58:25;17.90;77.21
65058;HTU21D;51644;51.068;5.860;2023-10-09T03:59:31;17.91;77.11
65058;HTU21D;51644;51.068;5.860;2023-10-09T04:00:33;17.93;77.04
65058;HTU21D;51644;51.068;5.860;2023-10-09T04:01:43;17.96;76.92
65058;HTU21D;51644;51.068;5.860;2023-10-09T04:02:42;17.96;76.91
65058;HTU21D;51644;51.068;5.860;2023-10-09T04:03:41;17.95;76.82
65058;HTU21D;51644;51.068;5.860;2023-10-09T04:04:40;17.95;76.89
65058;HTU21D;51644;51.068;5.860;2023-10-09T04:05:44;17.99;76.69
65058;HTU21D;51644;51.068;5.860;2023-10-09T04:06:42;17.97;76.69
65058;HTU21D;51644;51.068;5.860;2023-10-09T04:07:41;17.98;76.68
65058;HTU21D;51644;51.068;5.860;2023-10-09T04:08:40;17.98;76.60
65058;HTU21D;51644;51.068;5.860;2023-10-09T04:09:48;17.98;76.62
65058;HTU21D;51644;51.068;5.860;2023-10-09T04:10:55;17.95;76.64
65058;HTU21D;51644;51.068;5.860;2023-10-09T04:12:05;17.96;76.67
65058;HTU21D;51644;51.068;5.860;2023-10-09T04:13:11;17.96;76.59
65058;HTU21D;51644;51.068;5.860;2023-10-09T04:14:15;17.97;76.53
65058;HTU21D;51644;51.068;5.860;2023-10-09T04:15:31;17.97;76.53
65058;HTU21D;51644;51.068;5.860;2023-10-09T04:16:34;17.93;76.72
65058;HTU21D;51644;51.068;5.860;2023-10-09T04:17:33;17.92;76.76
65058;HTU21D;51644;51.068;5.860;2023-10-09T04:18:32;17.93;76.66
65058;HTU21D;51644;51.068;5.860;2023-10-09T04:19:32;17.94;76.65
65058;HTU21D;51644;51.068;5.860;2023-10-09T04:21:09;17.93;76.60
65058;HTU21D;51644;51.068;5.860;2023-10-09T04:22:17;17.95;76.52
65058;HTU21D;51644;51.068;5.860;2023-10-09T04:23:25;17.94;76.52
65058;HTU21D;51644;51.068;5.860;2023-10-09T04:24:34;17.90;76.82
65058;HTU21D;51644;51.068;5.860;2023-10-09T04:25:51;17.91;76.78
65058;HTU21D;51644;51.068;5.860;2023-10-09T04:26:52;17.90;76.69
65058;HTU21D;51644;51.068;5.860;2023-10-09T04:28:00;17.92;76.66
65058;HTU21D;51644;51.068;5.860;2023-10-09T04:29:17;17.90;76.84
65058;HTU21D;51644;51.068;5.860;2023-10-09T04:30:30;17.92;76.67
65058;HTU21D;51644;51.068;5.860;2023-10-09T04:31:38;17.93;76.59
65058;HTU21D;51644;51.068;5.860;2023-10-09T04:32:37;17.89;76.77
65058;HTU21D;51644;51.068;5.860;2023-10-09T04:33:38;17.89;76.98
65058;HTU21D;51644;51.068;5.860;2023-10-09T04:34:52;17.90;76.85
65058;HTU21D;51644;51.068;5.860;2023-10-09T04:36:16;17.83;77.14
65058;HTU21D;51644;51.068;5.860;2023-10-09T04:37:21;17.88;76.86
65058;HTU21D;51644;51.068;5.860;2023-10-09T04:38:35;17.90;76.78
65058;HTU21D;51644;51.068;5.860;2023-10-09T04:39:35;17.88;76.82
65058;HTU21D;51644;51.068;5.860;2023-10-09T04:40:35;17.84;77.00
65058;HTU21D;51644;51.068;5.860;2023-10-09T04:41:46;17.81;77.06
65058;HTU21D;51644;51.068;5.860;2023-10-09T04:42:45;17.79;77.11
65058;HTU21D;51644;51.068;5.860;2023-10-09T04:43:57;17.77;77.19
65058;HTU21D;51644;51.068;5.860;2023-10-09T04:45:37;17.79;77.06
65058;HTU21D;51644;51.068;5.860;2023-10-09T04:47:02;17.81;77.02
65058;HTU21D;51644;51.068;5.860;2023-10-09T04:48:12;17.84;76.80
65058;HTU21D;51644;51.068;5.860;2023-10-09T04:49:31;17.79;77.09
65058;HTU21D;51644;51.068;5.860;2023-10-09T04:50:44;17.84;76.87
65058;HTU21D;51644;51.068;5.860;2023-10-09T04:52:07;17.83;76.90
65058;HTU21D;51644;51.068;5.860;2023-10-09T04:53:16;17.78;77.18
65058;HTU21D;51644;51.068;5.860;2023-10-09T04:54:21;17.81;76.98
65058;HTU21D;51644;51.068;5.860;2023-10-09T04:55:37;17.80;77.08
65058;HTU21D;51644;51.068;5.860;2023-10-09T04:56:37;17.79;77.13
65058;HTU21D;51644;51.068;5.860;2023-10-09T04:57:51;17.76;77.23
65058;HTU21D;51644;51.068;5.860;2023-10-09T04:59:21;17.81;76.97
65058;HTU21D;51644;51.068;5.860;2023-10-09T05:00:23;17.80;77.02
65058;HTU21D;51644;51.068;5.860;2023-10-09T05:01:25;17.82;76.97
65058;HTU21D;51644;51.068;5.860;2023-10-09T05:02:34;17.75;77.31
65058;HTU21D;51644;51.068;5.860;2023-10-09T05:03:35;17.77;77.16
65058;HTU21D;51644;51.068;5.860;2023-10-09T05:04:42;17.82;77.04
65058;HTU21D;51644;51.068;5.860;2023-10-09T05:05:41;17.77;77.19
65058;HTU21D;51644;51.068;5.860;2023-10-09T05:06:40;17.74;77.51
65058;HTU21D;51644;51.068;5.860;2023-10-09T05:07:53;17.77;77.22
65058;HTU21D;51644;51.068;5.860;2023-10-09T05:09:15;17.75;77.42
65058;HTU21D;51644;51.068;5.860;2023-10-09T05:10:22;17.78;77.11
65058;HTU21D;51644;51.068;5.860;2023-10-09T05:11:24;17.78;77.19
65058;HTU21D;51644;51.068;5.860;2023-10-09T05:12:33;17.79;77.11
65058;HTU21D;51644;51.068;5.860;2023-10-09T05:13:36;17.78;77.08
65058;HTU21D;51644;51.068;5.860;2023-10-09T05:14:38;17.81;76.90
65058;HTU21D;51644;51.068;5.860;2023-10-09T05:15:42;17.79;77.19
65058;HTU21D;51644;51.068;5.860;2023-10-09T05:16:44;17.79;77.21
65058;HTU21D;51644;51.068;5.860;2023-10-09T05:17:52;17.78;77.09
65058;HTU21D;51644;51.068;5.860;2023-10-09T05:18:56;17.75;77.27
65058;HTU21D;51644;51.068;5.860;2023-10-09T05:19:55;17.72;77.56
65058;HTU21D;51644;51.068;5.860;2023-10-09T05:20:59;17.77;77.17
65058;HTU21D;51644;51.068;5.860;2023-10-09T05:22:18;17.78;77.13
65058;HTU21D;51644;51.068;5.860;2023-10-09T05:23:28;17.80;77.02
65058;HTU21D;51644;51.068;5.860;2023-10-09T05:24:27;17.82;76.99
65058;HTU21D;51644;51.068;5.860;2023-10-09T05:25:27;17.84;76.91
65058;HTU21D;51644;51.068;5.860;2023-10-09T05:26:52;17.85;76.89
65058;HTU21D;51644;51.068;5.860;2023-10-09T05:27:50;17.84;76.92
65058;HTU21D;51644;51.068;5.860;2023-10-09T05:28:49;17.83;76.92
65058;HTU21D;51644;51.068;5.860;2023-10-09T05:29:50;17.82;76.98
65058;HTU21D;51644;51.068;5.860;2023-10-09T05:31:11;17.85;76.79
65058;HTU21D;51644;51.068;5.860;2023-10-09T05:32:29;17.82;76.90
65058;HTU21D;51644;51.068;5.860;2023-10-09T05:33:36;17.78;77.01
65058;HTU21D;51644;51.068;5.860;2023-10-09T05:34:36;17.77;77.09
65058;HTU21D;51644;51.068;5.860;2023-10-09T05:35:53;17.78;76.95
65058;HTU21D;51644;51.068;5.860;2023-10-09T05:37:13;17.75;77.08
65058;HTU21D;51644;51.068;5.860;2023-10-09T05:38:23;17.70;77.30
65058;HTU21D;51644;51.068;5.860;2023-10-09T05:39:23;17.72;77.11
65058;HTU21D;51644;51.068;5.860;2023-10-09T05:40:40;17.72;77.07
65058;HTU21D;51644;51.068;5.860;2023-10-09T05:41:42;17.75;76.98
65058;HTU21D;51644;51.068;5.860;2023-10-09T05:43:03;17.70;77.22
65058;HTU21D;51644;51.068;5.860;2023-10-09T05:44:04;17.66;77.43
65058;HTU21D;51644;51.068;5.860;2023-10-09T05:45:26;17.66;77.50
65058;HTU21D;51644;51.068;5.860;2023-10-09T05:46:48;17.65;77.36
65058;HTU21D;51644;51.068;5.860;2023-10-09T05:48:06;17.64;77.31
65058;HTU21D;51644;51.068;5.860;2023-10-09T05:49:28;17.67;77.27
65058;HTU21D;51644;51.068;5.860;2023-10-09T05:50:47;17.64;77.36
65058;HTU21D;51644;51.068;5.860;2023-10-09T05:52:05;17.67;77.18
65058;HTU21D;51644;51.068;5.860;2023-10-09T05:53:23;17.68;77.16
65058;HTU21D;51644;51.068;5.860;2023-10-09T05:54:45;17.66;77.31
65058;HTU21D;51644;51.068;5.860;2023-10-09T05:56:13;17.75;77.01
65058;HTU21D;51644;51.068;5.860;2023-10-09T05:57:46;17.76;76.93
65058;HTU21D;51644;51.068;5.860;2023-10-09T05:58:54;17.78;76.92
65058;HTU21D;51644;51.068;5.860;2023-10-09T06:00:19;17.80;76.88
65058;HTU21D;51644;51.068;5.860;2023-10-09T06:01:37;17.78;76.95
65058;HTU21D;51644;51.068;5.860;2023-10-09T06:02:54;17.74;77.11
65058;HTU21D;51644;51.068;5.860;2023-10-09T06:04:11;17.76;77.05
65058;HTU21D;51644;51.068;5.860;2023-10-09T06:05:17;17.80;76.74
65058;HTU21D;51644;51.068;5.860;2023-10-09T06:06:38;17.79;76.83
65058;HTU21D;51644;51.068;5.860;2023-10-09T06:07:55;17.81;76.70
65058;HTU21D;51644;51.068;5.860;2023-10-09T06:09:06;17.82;76.76
65058;HTU21D;51644;51.068;5.860;2023-10-09T06:10:13;17.82;76.67
65058;HTU21D;51644;51.068;5.860;2023-10-09T06:11:31;17.82;76.68
65058;HTU21D;51644;51.068;5.860;2023-10-09T06:12:32;17.87;76.52
65058;HTU21D;51644;51.068;5.860;2023-10-09T06:13:32;17.89;76.40
65058;HTU21D;51644;51.068;5.860;2023-10-09T06:14:36;17.85;76.49
65058;HTU21D;51644;51.068;5.860;2023-10-09T06:15:38;17.88;76.51
65058;HTU21D;51644;51.068;5.860;2023-10-09T06:16:46;17.85;76.49
65058;HTU21D;51644;51.068;5.860;2023-10-09T06:18:23;17.91;76.27
65058;HTU21D;51644;51.068;5.860;2023-10-09T06:19:25;17.93;76.24
65058;HTU21D;51644;51.068;5.860;2023-10-09T06:20:24;17.95;76.22
65058;HTU21D;51644;51.068;5.860;2023-10-09T06:21:59;17.98;76.12
65058;HTU21D;51644;51.068;5.860;2023-10-09T06:23:10;18.03;76.03
65058;HTU21D;51644;51.068;5.860;2023-10-09T06:24:14;18.03;76.00
65058;HTU21D;51644;51.068;5.860;2023-10-09T06:25:13;18.06;75.98
65058;HTU21D;51644;51.068;5.860;2023-10-09T06:26:18;18.09;75.92
65058;HTU21D;51644;51.068;5.860;2023-10-09T06:27:23;18.10;75.79
65058;HTU21D;51644;51.068;5.860;2023-10-09T06:28:28;18.13;75.68
65058;HTU21D;51644;51.068;5.860;2023-10-09T06:29:32;18.15;75.60
65058;HTU21D;51644;51.068;5.860;2023-10-09T06:30:34;18.15;75.63
65058;HTU21D;51644;51.068;5.860;2023-10-09T06:31:34;18.19;75.44
65058;HTU21D;51644;51.068;5.860;2023-10-09T06:32:53;18.22;75.35
65058;HTU21D;51644;51.068;5.860;2023-10-09T06:34:17;18.25;75.25
65058;HTU21D;51644;51.068;5.860;2023-10-09T06:35:17;18.28;75.17
65058;HTU21D;51644;51.068;5.860;2023-10-09T06:36:16;18.29;75.13
65058;HTU21D;51644;51.068;5.860;2023-10-09T06:37:16;18.33;75.00
65058;HTU21D;51644;51.068;5.860;2023-10-09T06:38:24;18.30;75.01
65058;HTU21D;51644;51.068;5.860;2023-10-09T06:39:38;18.37;74.89
65058;HTU21D;51644;51.068;5.860;2023-10-09T06:41:09;18.37;74.86
65058;HTU21D;51644;51.068;5.860;2023-10-09T06:42:33;18.37;74.89
65058;HTU21D;51644;51.068;5.860;2023-10-09T06:43:31;18.38;74.89
65058;HTU21D;51644;51.068;5.860;2023-10-09T06:44:35;18.38;74.92
65058;HTU21D;51644;51.068;5.860;2023-10-09T06:45:54;18.38;74.86
65058;HTU21D;51644;51.068;5.860;2023-10-09T06:46:53;18.40;74.84
65058;HTU21D;51644;51.068;5.860;2023-10-09T06:47:56;18.41;74.81
65058;HTU21D;51644;51.068;5.860;2023-10-09T06:49:05;18.41;74.77
65058;HTU21D;51644;51.068;5.860;2023-10-09T06:50:24;18.43;74.72
65058;HTU21D;51644;51.068;5.860;2023-10-09T06:51:23;18.44;74.71